createdAt,value
2023-04-14T00:02:58.332Z,6.698303
2023-04-14T00:06:23.549Z,6.698303
2023-04-14T00:09:48.898Z,6.698303
2023-04-14T00:13:14.217Z,6.607666
2023-04-14T00:16:39.629Z,6.617737
2023-04-14T00:20:04.878Z,6.617737
2023-04-14T00:23:30.234Z,6.617737
2023-04-14T00:26:55.542Z,6.668091
2023-04-14T00:30:20.900Z,6.708374
2023-04-14T00:33:46.201Z,6.668091
2023-04-14T00:37:11.536Z,6.708374
2023-04-14T00:40:36.911Z,6.668091
2023-04-14T00:44:02.251Z,6.688232
2023-04-14T00:47:27.612Z,6.617737
2023-04-14T00:50:52.930Z,6.53717
2023-04-14T00:54:18.249Z,6.486816
2023-04-14T00:57:43.640Z,6.486816
2023-04-14T01:01:08.956Z,6.53717
2023-04-14T01:04:49.537Z,6.53717
2023-04-14T01:07:59.565Z,6.557312
2023-04-14T01:11:24.863Z,6.476746
2023-04-14T01:14:50.200Z,6.40625
2023-04-14T01:18:15.496Z,6.305542
2023-04-14T01:21:40.857Z,6.27533
2023-04-14T01:25:06.121Z,6.214905
2023-04-14T01:28:31.442Z,6.194763
2023-04-14T01:31:56.771Z,6.174622
2023-04-14T01:35:22.071Z,6.144409
2023-04-14T01:38:47.381Z,6.124268
2023-04-14T01:42:12.661Z,6.094055
2023-04-14T01:45:37.969Z,6.094055
2023-04-14T01:49:03.411Z,6.114197
2023-04-14T01:52:28.569Z,6.094055
2023-04-14T01:55:53.903Z,6.114197
2023-04-14T01:59:19.188Z,6.063843
2023-04-14T02:02:44.702Z,6.003418
2023-04-14T02:06:09.824Z,6.013489
2023-04-14T02:09:35.146Z,5.993347
2023-04-14T02:13:00.561Z,5.973206
2023-04-14T02:16:25.968Z,5.993347
2023-04-14T02:19:51.132Z,6.013489
2023-04-14T02:23:16.453Z,6.063843
2023-04-14T02:26:41.727Z,6.114197
2023-04-14T02:30:07.048Z,6.15448
2023-04-14T02:33:32.311Z,6.144409
2023-04-14T02:36:57.572Z,6.114197
2023-04-14T02:40:22.862Z,6.013489
2023-04-14T02:43:48.147Z,6.003418
2023-04-14T02:47:13.500Z,5.963135
2023-04-14T02:50:38.739Z,5.932922
2023-04-14T02:54:04.012Z,5.90271
2023-04-14T02:57:29.295Z,5.90271
2023-04-14T03:00:54.559Z,5.892639
2023-04-14T03:04:19.906Z,5.942993
2023-04-14T03:07:45.202Z,5.973206
2023-04-14T03:11:10.526Z,6.013489
2023-04-14T03:14:35.815Z,5.973206
2023-04-14T03:18:01.114Z,5.973206
2023-04-14T03:21:26.448Z,5.963135
2023-04-14T03:24:51.669Z,5.942993
2023-04-14T03:28:16.976Z,5.942993
2023-04-14T03:31:42.261Z,5.963135
2023-04-14T03:35:07.543Z,5.862427
2023-04-14T03:38:32.851Z,5.912781
2023-04-14T03:41:58.112Z,5.912781
2023-04-14T03:45:23.374Z,5.912781
2023-04-14T03:48:48.638Z,5.892639
2023-04-14T03:52:13.932Z,5.832214
2023-04-14T03:55:39.242Z,5.852356
2023-04-14T03:59:04.466Z,5.862427
2023-04-14T04:02:29.881Z,5.852356
2023-04-14T04:05:55.015Z,5.791931
2023-04-14T04:09:20.278Z,5.791931
2023-04-14T04:12:45.592Z,5.812073
2023-04-14T04:16:10.917Z,5.852356
2023-04-14T04:19:36.163Z,5.852356
2023-04-14T04:23:01.464Z,5.822144
2023-04-14T04:26:26.771Z,5.822144
2023-04-14T04:29:52.103Z,5.761719
2023-04-14T04:33:17.361Z,5.671082
2023-04-14T04:36:42.702Z,5.721436
2023-04-14T04:40:08.052Z,5.78186
2023-04-14T04:43:33.328Z,5.822144
2023-04-14T04:46:58.930Z,5.832214
2023-04-14T04:50:24.161Z,5.822144
2023-04-14T04:53:49.479Z,5.832214
2023-04-14T04:57:14.772Z,5.852356
2023-04-14T05:00:40.058Z,5.892639
2023-04-14T05:04:05.382Z,5.892639
2023-04-14T05:07:30.593Z,5.90271
2023-04-14T05:10:55.827Z,5.932922
2023-04-14T05:14:21.039Z,5.963135
2023-04-14T05:17:46.339Z,5.942993
2023-04-14T05:21:11.497Z,5.963135
2023-04-14T05:24:36.681Z,5.912781
2023-04-14T05:28:01.917Z,5.932922
2023-04-14T05:31:27.188Z,5.90271
2023-04-14T05:34:52.331Z,5.942993
2023-04-14T05:38:17.576Z,5.973206
2023-04-14T05:41:42.807Z,6.013489
2023-04-14T05:45:08.026Z,6.083984
2023-04-14T05:48:33.414Z,6.124268
2023-04-14T05:51:58.462Z,6.15448
2023-04-14T05:55:23.772Z,6.174622
2023-04-14T05:58:48.980Z,6.15448
2023-04-14T06:02:14.259Z,6.114197
2023-04-14T06:05:39.410Z,6.114197
2023-04-14T06:09:04.700Z,6.094055
2023-04-14T06:12:30.024Z,6.124268
2023-04-14T06:15:55.286Z,6.15448
2023-04-14T06:19:20.619Z,6.15448
2023-04-14T06:22:45.929Z,6.245117
2023-04-14T06:26:11.260Z,6.245117
2023-04-14T06:29:36.565Z,6.27533
2023-04-14T06:33:02.031Z,6.305542
2023-04-14T06:36:27.248Z,6.355896
2023-04-14T06:39:52.595Z,6.376038
2023-04-14T06:43:17.923Z,6.426392
2023-04-14T06:46:43.312Z,6.426392
2023-04-14T06:50:08.654Z,6.426392
2023-04-14T06:53:34.009Z,6.476746
2023-04-14T06:57:00.072Z,6.517029
2023-04-14T07:00:24.658Z,6.53717
2023-04-14T07:03:50.012Z,6.617737
2023-04-14T07:07:15.315Z,6.708374
2023-04-14T07:10:40.900Z,6.728516
2023-04-14T07:14:06.031Z,6.728516
2023-04-14T07:17:31.345Z,6.768799
2023-04-14T07:20:56.688Z,6.799011
2023-04-14T07:24:22.005Z,6.879578
2023-04-14T07:28:00.216Z,6.839294
2023-04-14T07:31:12.659Z,6.919861
2023-04-14T07:34:38.021Z,6.970215
2023-04-14T07:38:03.547Z,7.070923
2023-04-14T07:41:28.772Z,7.070923
2023-04-14T07:44:54.178Z,7.121277
2023-04-14T07:48:19.510Z,7.171631
2023-04-14T07:51:44.881Z,7.201843
2023-04-14T07:55:10.253Z,7.171631
2023-04-14T07:58:35.537Z,7.242126
2023-04-14T08:02:00.876Z,7.211914
2023-04-14T08:05:26.202Z,7.101135
2023-04-14T08:08:51.502Z,7.070923
2023-04-14T08:12:16.842Z,7.091064
2023-04-14T08:15:42.125Z,7.091064
2023-04-14T08:19:07.362Z,7.050781
2023-04-14T08:22:32.623Z,7.050781
2023-04-14T08:25:57.868Z,7.151489
2023-04-14T08:29:23.246Z,7.252197
2023-04-14T08:32:48.511Z,7.373047
2023-04-14T08:36:13.740Z,7.453613
2023-04-14T08:39:39.013Z,7.493896
2023-04-14T08:43:04.285Z,7.574463
2023-04-14T08:46:29.745Z,7.584534
2023-04-14T08:49:54.976Z,7.584534
2023-04-14T08:53:20.241Z,7.604675
2023-04-14T08:56:45.587Z,7.584534
2023-04-14T09:00:10.987Z,7.6651
2023-04-14T09:03:36.452Z,7.6651
2023-04-14T09:07:01.554Z,7.705383
2023-04-14T09:10:26.873Z,7.78595
2023-04-14T09:13:52.186Z,7.846375
2023-04-14T09:17:17.561Z,7.947083
2023-04-14T09:20:42.949Z,8.007507
2023-04-14T09:24:09.814Z,8.03772
2023-04-14T09:27:33.660Z,8.158569
2023-04-14T09:30:59.077Z,8.259277
2023-04-14T09:34:24.490Z,8.430481
2023-04-14T09:37:49.935Z,8.521118
2023-04-14T09:41:15.255Z,8.611755
2023-04-14T09:44:40.775Z,8.712463
2023-04-14T09:48:06.192Z,8.702393
2023-04-14T09:51:31.580Z,8.803101
2023-04-14T09:54:57.041Z,8.843384
2023-04-14T09:58:23.590Z,8.944092
2023-04-14T10:01:47.827Z,9.0448
2023-04-14T10:05:13.244Z,8.964233
2023-04-14T10:08:38.566Z,8.833313
2023-04-14T10:12:03.924Z,8.79303
2023-04-14T10:15:29.210Z,8.813171
2023-04-14T10:18:54.582Z,8.803101
2023-04-14T10:22:19.883Z,8.833313
2023-04-14T10:25:45.283Z,8.742676
2023-04-14T10:29:10.547Z,8.652039
2023-04-14T10:32:35.853Z,8.521118
2023-04-14T10:36:01.202Z,8.500977
2023-04-14T10:39:26.548Z,8.591614
2023-04-14T10:42:52.013Z,8.662109
2023-04-14T10:46:18.551Z,8.742676
2023-04-14T10:49:42.604Z,8.561401
2023-04-14T10:53:07.930Z,8.430481
2023-04-14T10:56:33.167Z,7.967224
2023-04-14T10:59:58.477Z,7.524109
2023-04-14T11:03:24.609Z,7.483826
2023-04-14T11:06:49.109Z,7.524109
2023-04-14T11:10:14.448Z,7.715454
2023-04-14T11:13:39.716Z,7.856445
2023-04-14T11:17:05.218Z,8.03772
2023-04-14T11:20:30.517Z,8.158569
2023-04-14T11:23:58.227Z,8.339844
2023-04-14T11:27:26.258Z,8.440552
2023-04-14T11:30:51.543Z,8.430481
2023-04-14T11:34:16.906Z,8.400269
2023-04-14T11:37:42.204Z,8.440552
2023-04-14T11:41:07.421Z,8.440552
2023-04-14T11:44:32.780Z,8.450623
2023-04-14T11:47:58.767Z,8.591614
2023-04-14T11:51:24.045Z,8.662109
2023-04-14T11:54:49.426Z,8.873596
2023-04-14T11:58:14.695Z,8.954163
2023-04-14T12:01:39.916Z,9.014587
2023-04-14T12:05:05.346Z,8.913879
2023-04-14T12:08:30.427Z,8.863525
2023-04-14T12:11:55.893Z,8.994446
2023-04-14T12:15:21.122Z,9.095154
2023-04-14T12:18:46.388Z,9.145508
2023-04-14T12:22:11.610Z,9.165649
2023-04-14T12:25:36.867Z,9.105225
2023-04-14T12:29:02.495Z,8.92395
2023-04-14T12:32:27.552Z,8.581543
2023-04-14T12:35:52.804Z,8.198853
2023-04-14T12:39:18.026Z,8.047791
2023-04-14T12:42:43.435Z,8.158569
2023-04-14T12:46:08.751Z,8.299561
2023-04-14T12:49:34.190Z,8.440552
2023-04-14T12:52:59.600Z,8.611755
2023-04-14T12:56:25.002Z,8.742676
2023-04-14T12:59:50.413Z,8.92395
2023-04-14T13:03:15.911Z,8.913879
2023-04-14T13:06:41.371Z,8.954163
2023-04-14T13:10:06.881Z,8.994446
2023-04-14T13:13:32.359Z,9.195862
2023-04-14T13:16:57.823Z,9.226074
2023-04-14T13:20:23.388Z,9.286499
2023-04-14T13:23:48.845Z,9.286499
2023-04-14T13:27:14.348Z,9.286499
2023-04-14T13:30:39.942Z,9.236145
2023-04-14T13:34:05.687Z,9.286499
2023-04-14T13:37:31.289Z,9.346924
2023-04-14T13:40:56.895Z,9.306641
2023-04-14T13:44:22.434Z,9.17572
2023-04-14T13:47:48.102Z,8.913879
2023-04-14T13:51:13.619Z,8.531189
2023-04-14T13:54:39.259Z,8.440552
2023-04-14T13:58:04.762Z,8.299561
2023-04-14T14:01:30.134Z,8.047791
2023-04-14T14:04:55.391Z,7.997437
2023-04-14T14:08:20.693Z,7.91687
2023-04-14T14:11:46.011Z,7.866516
2023-04-14T14:15:11.331Z,7.896729
2023-04-14T14:18:36.624Z,7.886658
2023-04-14T14:22:01.938Z,8.007507
2023-04-14T14:25:27.252Z,8.03772
2023-04-14T14:28:52.564Z,8.118286
2023-04-14T14:32:17.914Z,8.218994
2023-04-14T14:35:43.284Z,8.229065
2023-04-14T14:39:08.598Z,8.370056
2023-04-14T14:42:33.825Z,8.500977
2023-04-14T14:45:59.130Z,8.631897
2023-04-14T14:49:24.725Z,8.79303
2023-04-14T14:52:50.009Z,8.833313
2023-04-14T14:56:15.340Z,8.772888
2023-04-14T14:59:40.648Z,8.652039
2023-04-14T15:03:06.037Z,8.611755
2023-04-14T15:06:31.301Z,8.631897
2023-04-14T15:41:07.426Z,8.913879
2023-04-14T15:44:32.777Z,8.893738
2023-04-14T15:47:58.232Z,8.843384
2023-04-14T15:51:23.553Z,8.833313
2023-04-14T15:54:48.946Z,8.813171
2023-04-14T15:58:14.401Z,8.813171
2023-04-14T16:01:39.797Z,8.863525
2023-04-14T16:05:05.239Z,8.813171
2023-04-14T16:08:30.567Z,8.742676
2023-04-14T16:11:55.942Z,8.682251
2023-04-14T16:15:21.380Z,8.682251
2023-04-14T16:18:46.735Z,8.531189
2023-04-14T16:22:12.315Z,8.500977
2023-04-14T16:25:38.082Z,8.430481
2023-04-14T16:29:03.512Z,8.329773
2023-04-14T16:32:28.929Z,8.198853
2023-04-14T16:35:54.274Z,8.017578
2023-04-14T16:39:19.632Z,7.715454
2023-04-14T16:42:45.122Z,7.604675
2023-04-14T16:46:10.832Z,7.503967
2023-04-14T16:49:36.558Z,7.584534
2023-04-14T16:53:02.225Z,7.554321
2023-04-14T16:56:28.550Z,7.423401
2023-04-14T16:59:55.663Z,7.403259
2023-04-14T17:03:24.461Z,7.433472
2023-04-14T17:06:51.090Z,7.53418
2023-04-14T17:10:17.872Z,7.644958
2023-04-14T17:13:44.493Z,7.685242
2023-04-14T17:17:11.278Z,7.705383
2023-04-14T17:20:39.946Z,7.715454
2023-04-14T17:24:07.381Z,7.584534
2023-04-14T17:27:34.419Z,7.614746
2023-04-14T17:31:00.188Z,7.675171
2023-04-14T17:34:25.866Z,7.685242
2023-04-14T17:37:51.554Z,7.705383
2023-04-14T17:41:17.359Z,7.745667
2023-04-14T17:44:42.909Z,7.765808
2023-04-14T17:48:09.413Z,7.745667
2023-04-14T17:51:35.343Z,7.705383
2023-04-14T17:55:01.107Z,7.604675
2023-04-14T17:58:26.923Z,7.644958
2023-04-14T18:01:52.697Z,7.644958
2023-04-14T18:05:18.426Z,7.6651
2023-04-14T18:08:44.172Z,7.644958
2023-04-14T18:12:09.890Z,7.675171
2023-04-14T18:15:35.634Z,7.675171
2023-04-14T18:19:01.501Z,7.715454
2023-04-14T18:22:27.115Z,7.735596
2023-04-14T18:29:18.523Z,7.715454
2023-04-14T18:32:44.235Z,7.735596
2023-04-14T18:36:09.870Z,7.715454
2023-04-14T18:39:35.490Z,7.816162
2023-04-14T18:43:01.081Z,7.796021
2023-04-14T18:46:26.639Z,7.796021
2023-04-14T18:49:51.980Z,7.765808
2023-04-14T18:53:17.316Z,7.765808
2023-04-14T18:56:42.660Z,7.735596
2023-04-14T19:00:08.008Z,7.765808
2023-04-14T19:03:33.376Z,7.745667
2023-04-14T19:06:58.754Z,7.78595
2023-04-14T19:10:24.046Z,7.765808
2023-04-14T19:13:49.513Z,7.745667
2023-04-14T19:17:14.783Z,7.715454
2023-04-14T19:20:40.141Z,7.614746
2023-04-14T19:24:05.473Z,7.463684
2023-04-14T19:27:30.795Z,7.463684
2023-04-14T19:30:56.150Z,7.433472
2023-04-14T19:34:21.535Z,7.342834
2023-04-14T19:37:46.853Z,7.312622
2023-04-14T19:41:12.217Z,7.352905
2023-04-14T19:44:37.563Z,7.352905
2023-04-14T19:48:10.049Z,7.373047
2023-04-14T19:51:28.291Z,7.342834
2023-04-14T19:54:53.633Z,7.352905
2023-04-14T19:58:20.730Z,7.312622
2023-04-14T20:01:44.473Z,7.322693
2023-04-14T20:05:09.669Z,7.342834
2023-04-14T20:08:34.882Z,7.312622
2023-04-14T20:12:00.111Z,7.312622
2023-04-14T20:15:25.339Z,7.393188
2023-04-14T20:18:50.538Z,7.352905
2023-04-14T20:22:17.124Z,7.423401
2023-04-14T20:25:42.336Z,7.433472
2023-04-14T20:29:07.565Z,7.483826
2023-04-14T20:32:32.815Z,7.524109
2023-04-14T20:35:57.996Z,7.53418
2023-04-14T20:39:23.261Z,7.453613
2023-04-14T20:42:48.456Z,7.483826
2023-04-14T20:46:13.657Z,7.423401
2023-04-14T20:49:38.910Z,7.373047
2023-04-14T20:53:04.081Z,7.373047
2023-04-14T20:56:29.289Z,7.373047
2023-04-14T20:59:54.519Z,7.322693
2023-04-14T21:03:19.843Z,7.312622
2023-04-14T21:06:44.941Z,7.312622
2023-04-14T21:10:10.881Z,7.252197
2023-04-14T21:15:25.260Z,7.272339
2023-04-14T21:17:01.368Z,7.242126
2023-04-14T21:20:26.509Z,7.201843
2023-04-14T21:23:51.751Z,7.16156
2023-04-14T21:27:16.938Z,7.211914
2023-04-14T21:30:42.137Z,7.171631
2023-04-14T21:34:07.354Z,7.131348
2023-04-14T21:37:32.565Z,7.070923
2023-04-14T21:40:57.829Z,7.050781
2023-04-14T21:44:23.021Z,6.950073
2023-04-14T21:47:48.285Z,6.980286
2023-04-14T21:51:16.922Z,6.990356
2023-04-14T21:54:42.173Z,6.990356
2023-04-14T21:58:07.415Z,6.919861
2023-04-14T22:01:32.603Z,6.849365
2023-04-14T22:04:57.805Z,6.889648
2023-04-14T22:08:23.012Z,6.879578
2023-04-14T22:11:48.232Z,6.879578
2023-04-14T22:15:13.466Z,6.849365
2023-04-14T22:18:38.682Z,6.799011
2023-04-14T22:22:03.859Z,6.758728
2023-04-14T22:25:29.066Z,6.617737
2023-04-14T22:28:54.294Z,6.517029
2023-04-14T22:32:19.526Z,6.53717
2023-04-14T22:35:44.726Z,6.53717
2023-04-14T22:39:09.933Z,6.476746
2023-04-14T22:42:35.149Z,6.486816
2023-04-14T22:46:00.365Z,6.547241
2023-04-14T22:49:25.575Z,6.637878
2023-04-14T22:52:50.756Z,6.65802
2023-04-14T22:56:15.945Z,6.728516
2023-04-14T22:59:41.146Z,6.738586
2023-04-14T23:03:06.669Z,6.799011
2023-04-14T23:06:31.839Z,6.869507
2023-04-14T23:09:57.026Z,6.849365
2023-04-14T23:13:22.208Z,6.809082
2023-04-14T23:16:47.444Z,6.738586
2023-04-14T23:20:12.669Z,6.698303
2023-04-14T23:23:37.891Z,6.688232
2023-04-14T23:27:03.073Z,6.708374
2023-04-14T23:30:28.275Z,6.65802
2023-04-14T23:33:53.465Z,6.617737
2023-04-14T23:37:18.691Z,6.547241
2023-04-14T23:40:43.928Z,6.587524
2023-04-14T23:44:09.097Z,6.587524
2023-04-14T23:47:34.312Z,6.587524
2023-04-14T23:51:03.882Z,6.577454
2023-04-14T23:54:24.738Z,6.617737
